Valborg — OFNR — position and weather

sailwx.info

Track history (hours):
 
Tides and Currents Weather Stations Pressure Air Temp Water Temp Dewpoint Dewpoint Depression Visibility Wind Speed Wind Dir Waves Ship Positions

Valborg

Last reported at 2014-Jul-28 05:18 UTC. Time now 2014-Jul-30 07:06 UTC.
Position N 60°10' E 024°58'.

Length 30 m; draft 2.4 m.

Type: Sailing vessel. MMSI: 230108270.

Date/timePositionNaut miles runAvg speedWind from/ knotsBaromVisibWave heightAir tempDewpointWater temp
2014-Jul-28 05:18N 60°10' E 024°58'0 0.0
2014-Jul-28 04:33N 60°10' E 024°58'0 0.0
2014-Jul-28 03:27N 60°10' E 024°58'0 0.0
2014-Jul-28 02:30N 60°10' E 024°58'0 0.0
2014-Jul-28 01:33N 60°10' E 024°58'0 0.0
2014-Jul-28 00:33N 60°10' E 024°58'0 0.0
2014-Jul-27 23:30N 60°10' E 024°58'0 0.0
2014-Jul-27 22:30N 60°10' E 024°58'0 0.0
2014-Jul-27 20:33N 60°10' E 024°58'0 0.0
2014-Jul-27 19:33N 60°10' E 024°58'0 0.0
2014-Jul-27 18:33N 60°10' E 024°58'0 0.0
2014-Jul-27 17:27N 60°10' E 024°58'0 0.0
2014-Jul-27 10:23N 60°10' E 024°58'5 5.8
2014-Jul-27 09:33N 60°07' E 024°52'7 6.8
2014-Jul-27 08:33N 60°03' E 024°40'7 6.7
2014-Jul-27 07:33N 59°59' E 024°30'2 1.7
2014-Jul-27 06:32N 59°58' E 024°26'0 0.0
2014-Jul-27 04:32N 59°58' E 024°27'0 0.0
2014-Jul-27 03:29N 59°58' E 024°27'0 0.0
2014-Jul-27 02:32N 59°58' E 024°26'0 0.0
2014-Jul-27 01:29N 59°58' E 024°26'0 0.0
2014-Jul-27 00:29N 59°58' E 024°27'0 0.0
2014-Jul-26 23:29N 59°58' E 024°27'0 0.0
2014-Jul-26 22:29N 59°58' E 024°27'0 0.0
2014-Jul-26 21:29N 59°58' E 024°27'0 0.0
2014-Jul-26 20:32N 59°58' E 024°27'4 0.5
2014-Jul-26 13:33N 59°56' E 024°20'15 3.4
2014-Jul-26 09:14N 59°58' E 023°51'5 6.8
2014-Jul-26 08:33N 59°55' E 023°44'7 6.7
2014-Jul-26 07:33N 59°50' E 023°34'0 0.2
2014-Jul-26 05:28N 59°50' E 023°34'0 0.0
2014-Jul-26 04:31N 59°50' E 023°34'0 0.0
2014-Jul-26 03:28N 59°50' E 023°34'0 0.0
2014-Jul-26 02:31N 59°50' E 023°34'0 0.0
2014-Jul-26 01:31N 59°50' E 023°34'0 0.0
2014-Jul-26 00:28N 59°50' E 023°34'0 0.0
2014-Jul-25 23:16N 59°50' E 023°34'0 0.0
2014-Jul-25 22:28N 59°50' E 023°34'0 0.0
2014-Jul-25 21:28N 59°50' E 023°34'0 0.0
2014-Jul-25 16:28N 59°50' E 023°34'3 3.4
2014-Jul-25 15:33N 59°51' E 023°29'6 5.7
2014-Jul-25 14:33N 59°54' E 023°20'5 5.2
2014-Jul-25 13:32N 59°59' E 023°26'0 0.0
2014-Jul-25 12:32N 59°59' E 023°26'0 0.0
2014-Jul-25 11:32N 59°59' E 023°26'0 0.0
2014-Jul-25 10:32N 59°59' E 023°26'0 0.0
2014-Jul-25 09:32N 59°59' E 023°26'0 0.0
2014-Jul-25 08:32N 59°59' E 023°26'0 0.0
2014-Jul-25 07:32N 59°59' E 023°26'0 0.0
2014-Jul-25 06:29N 59°59' E 023°26'0 0.0
2014-Jul-25 05:32N 59°59' E 023°26'0 0.0
2014-Jul-25 04:20N 59°59' E 023°26'0 0.0
2014-Jul-25 03:26N 59°59' E 023°26'0 0.0
2014-Jul-25 01:29N 59°59' E 023°26'0 0.0
2014-Jul-25 00:26N 59°59' E 023°26'0 0.0
2014-Jul-24 23:29N 59°59' E 023°26'0 0.0
2014-Jul-24 22:32N 59°59' E 023°26'0 0.0
2014-Jul-24 21:29N 59°59' E 023°26'0 0.0
2014-Jul-24 20:32N 59°59' E 023°26'0 0.0
2014-Jul-24 19:32N 59°59' E 023°26'0 0.0
2014-Jul-24 18:26N 59°59' E 023°26'0 0.0
2014-Jul-24 17:32N 59°59' E 023°26'0 0.0
2014-Jul-24 16:32N 59°59' E 023°26'0 0.0
2014-Jul-24 15:32N 59°59' E 023°26'0 0.0
2014-Jul-24 14:32N 59°59' E 023°26'0 0.0
2014-Jul-24 13:26N 59°59' E 023°26'0 0.0
2014-Jul-24 12:32N 59°59' E 023°26'0 0.4
2014-Jul-24 11:33N 59°59' E 023°25'7 6.8
2014-Jul-24 10:33N 59°53' E 023°17'6 5.9
2014-Jul-24 09:33N 59°48' E 023°12'  
Track history (hours):
 
Tides and Currents Weather Stations Pressure Air Temp Water Temp Dewpoint Dewpoint Depression Visibility Wind Speed Wind Dir Waves Ship Positions

Valborg

Last reported at 2014-Jul-28 05:18 UTC. Time now 2014-Jul-30 07:06 UTC.
Position N 60°10' E 024°58'.

Length 30 m; draft 2.4 m.

Type: Sailing vessel. MMSI: 230108270.

Date/timePositionNaut miles runAvg speedWind from/ knotsBaromVisibWave heightAir tempDewpointWater temp
2014-Jul-28 05:18N 60°10' E 024°58'0 0.0
2014-Jul-28 04:33N 60°10' E 024°58'0 0.0
2014-Jul-28 03:27N 60°10' E 024°58'0 0.0
2014-Jul-28 02:30N 60°10' E 024°58'0 0.0
2014-Jul-28 01:33N 60°10' E 024°58'0 0.0
2014-Jul-28 00:33N 60°10' E 024°58'0 0.0
2014-Jul-27 23:30N 60°10' E 024°58'0 0.0
2014-Jul-27 22:30N 60°10' E 024°58'0 0.0
2014-Jul-27 20:33N 60°10' E 024°58'0 0.0
2014-Jul-27 19:33N 60°10' E 024°58'0 0.0
2014-Jul-27 18:33N 60°10' E 024°58'0 0.0
2014-Jul-27 17:27N 60°10' E 024°58'0 0.0
2014-Jul-27 10:23N 60°10' E 024°58'5 5.8
2014-Jul-27 09:33N 60°07' E 024°52'7 6.8
2014-Jul-27 08:33N 60°03' E 024°40'7 6.7
2014-Jul-27 07:33N 59°59' E 024°30'2 1.7
2014-Jul-27 06:32N 59°58' E 024°26'0 0.0
2014-Jul-27 04:32N 59°58' E 024°27'0 0.0
2014-Jul-27 03:29N 59°58' E 024°27'0 0.0
2014-Jul-27 02:32N 59°58' E 024°26'0 0.0
2014-Jul-27 01:29N 59°58' E 024°26'0 0.0
2014-Jul-27 00:29N 59°58' E 024°27'0 0.0
2014-Jul-26 23:29N 59°58' E 024°27'0 0.0
2014-Jul-26 22:29N 59°58' E 024°27'0 0.0
2014-Jul-26 21:29N 59°58' E 024°27'0 0.0
2014-Jul-26 20:32N 59°58' E 024°27'4 0.5
2014-Jul-26 13:33N 59°56' E 024°20'15 3.4
2014-Jul-26 09:14N 59°58' E 023°51'5 6.8
2014-Jul-26 08:33N 59°55' E 023°44'7 6.7
2014-Jul-26 07:33N 59°50' E 023°34'0 0.2
2014-Jul-26 05:28N 59°50' E 023°34'0 0.0
2014-Jul-26 04:31N 59°50' E 023°34'0 0.0
2014-Jul-26 03:28N 59°50' E 023°34'0 0.0
2014-Jul-26 02:31N 59°50' E 023°34'0 0.0
2014-Jul-26 01:31N 59°50' E 023°34'0 0.0
2014-Jul-26 00:28N 59°50' E 023°34'0 0.0
2014-Jul-25 23:16N 59°50' E 023°34'0 0.0
2014-Jul-25 22:28N 59°50' E 023°34'0 0.0
2014-Jul-25 21:28N 59°50' E 023°34'0 0.0
2014-Jul-25 16:28N 59°50' E 023°34'3 3.4
2014-Jul-25 15:33N 59°51' E 023°29'6 5.7
2014-Jul-25 14:33N 59°54' E 023°20'5 5.2
2014-Jul-25 13:32N 59°59' E 023°26'0 0.0
2014-Jul-25 12:32N 59°59' E 023°26'0 0.0
2014-Jul-25 11:32N 59°59' E 023°26'0 0.0
2014-Jul-25 10:32N 59°59' E 023°26'0 0.0
2014-Jul-25 09:32N 59°59' E 023°26'0 0.0
2014-Jul-25 08:32N 59°59' E 023°26'0 0.0
2014-Jul-25 07:32N 59°59' E 023°26'0 0.0
2014-Jul-25 06:29N 59°59' E 023°26'0 0.0
2014-Jul-25 05:32N 59°59' E 023°26'0 0.0
2014-Jul-25 04:20N 59°59' E 023°26'0 0.0
2014-Jul-25 03:26N 59°59' E 023°26'0 0.0
2014-Jul-25 01:29N 59°59' E 023°26'0 0.0
2014-Jul-25 00:26N 59°59' E 023°26'0 0.0
2014-Jul-24 23:29N 59°59' E 023°26'0 0.0
2014-Jul-24 22:32N 59°59' E 023°26'0 0.0
2014-Jul-24 21:29N 59°59' E 023°26'0 0.0
2014-Jul-24 20:32N 59°59' E 023°26'0 0.0
2014-Jul-24 19:32N 59°59' E 023°26'0 0.0
2014-Jul-24 18:26N 59°59' E 023°26'0 0.0
2014-Jul-24 17:32N 59°59' E 023°26'0 0.0
2014-Jul-24 16:32N 59°59' E 023°26'0 0.0
2014-Jul-24 15:32N 59°59' E 023°26'0 0.0
2014-Jul-24 14:32N 59°59' E 023°26'0 0.0
2014-Jul-24 13:26N 59°59' E 023°26'0 0.0
2014-Jul-24 12:32N 59°59' E 023°26'0 0.4
2014-Jul-24 11:33N 59°59' E 023°25'7 6.8
2014-Jul-24 10:33N 59°53' E 023°17'6 5.9
2014-Jul-24 09:33N 59°48' E 023°12'  

Dump ship's entire track history